Time;durP1;ratioP1;P1;durP2;ratioP2;P2;SDS_P1;SDS_P2;PMS_P1;PMS_P2;Temp;Humidity;BMP_temperature;BMP_pressure;BME280_temperature;BME280_humidity;BME280_pressure;Samples;Min_cycle;Max_cycle;Signal;HPM_P1;HPM_P2
2021/12/22 00:00:15;;;;;;;18.73;12.28;;;;;;;0.52;84.66;101337.16;3014166;79;21093;-72
2021/12/22 00:04:25;;;;;;;18.20;10.65;;;;;;;0.54;84.75;101334.05;3003897;79;21042;-72
2021/12/22 00:08:25;;;;;;;15.18;11.38;;;;;;;0.53;85.09;101335.83;3016766;76;21017;-73
2021/12/22 00:12:27;;;;;;;19.87;11.10;;;;;;;0.54;84.67;101332.73;3020352;78;20994;-73
2021/12/22 00:16:29;;;;;;;14.75;9.23;;;;;;;0.50;84.63;101333.71;3020247;78;21037;-72
2021/12/22 00:20:30;;;;;;;14.28;11.33;;;;;;;0.40;85.07;101343.53;3027557;77;21009;-71
2021/12/22 00:24:34;;;;;;;17.55;10.05;;;;;;;0.51;85.00;101336.31;3022690;76;21041;-73
2021/12/22 00:28:35;;;;;;;19.10;10.55;;;;;;;0.59;84.46;101340.50;3050661;77;21585;-73
2021/12/22 00:32:39;;;;;;;17.20;10.43;;;;;;;0.58;84.05;101351.41;3046282;77;21578;-73
2021/12/22 00:36:43;;;;;;;15.43;10.13;;;;;;;0.51;83.77;101349.83;3040868;77;21073;-73
2021/12/22 00:40:47;;;;;;;21.82;10.70;;;;;;;0.62;83.85;101355.70;3034444;77;21071;-72
2021/12/22 00:44:53;;;;;;;16.42;10.75;;;;;;;0.49;83.46;101359.05;3038913;77;21960;-72
2021/12/22 00:48:54;;;;;;;15.93;9.83;;;;;;;0.48;83.23;101365.62;3034381;77;21024;-72
2021/12/22 00:52:56;;;;;;;13.05;9.55;;;;;;;0.45;83.86;101360.45;3038629;77;20969;-73
2021/12/22 00:57:04;;;;;;;14.15;9.30;;;;;;;0.32;83.60;101372.48;3038828;77;21017;-72
2021/12/22 01:01:04;;;;;;;18.63;10.13;;;;;;;0.30;83.67;101372.13;3038854;77;20995;-72
2021/12/22 01:05:08;;;;;;;15.93;11.15;;;;;;;0.29;83.57;101373.88;3064353;77;21140;-72
2021/12/22 01:09:10;;;;;;;15.50;9.38;;;;;;;0.33;83.52;101382.06;3060686;77;21012;-72
2021/12/22 01:13:13;;;;;;;16.45;10.05;;;;;;;0.32;82.32;101380.34;3064127;77;21671;-73
2021/12/22 01:17:16;;;;;;;13.45;7.70;;;;;;;0.30;82.28;101385.22;3065167;77;21299;-73
2021/12/22 01:21:28;;;;;;;11.97;8.05;;;;;;;0.25;81.79;101384.00;3065330;76;21003;-72
2021/12/22 01:25:22;;;;;;;11.22;7.45;;;;;;;0.20;81.82;101383.24;3076448;75;21063;-73
2021/12/22 01:29:24;;;;;;;13.05;8.60;;;;;;;0.13;81.73;101388.58;3030879;77;20999;-73
2021/12/22 01:33:26;;;;;;;10.05;7.22;;;;;;;0.20;81.16;101385.39;3016706;77;21030;-72
2021/12/22 01:37:27;;;;;;;8.43;5.97;;;;;;;0.25;81.36;101390.54;3046524;76;20995;-72
2021/12/22 01:41:29;;;;;;;11.05;6.37;;;;;;;0.24;79.94;101392.28;3070645;77;21490;-73
2021/12/22 01:46:31;;;;;;;12.47;8.03;;;;;;;0.25;78.69;101388.77;3070929;77;22171;-72
2021/12/22 01:49:53;;;;;;;15.50;9.15;;;;;;;0.26;80.42;101383.10;3058117;77;20995;-72
2021/12/22 01:54:00;;;;;;;9.13;6.17;;;;;;;0.35;81.16;101385.51;3071813;77;20988;-72
2021/12/22 01:58:05;;;;;;;8.90;5.85;;;;;;;0.36;80.17;101381.99;3071590;76;20956;-71
2021/12/22 02:02:10;;;;;;;12.03;8.07;;;;;;;0.32;79.20;101379.03;3064744;77;21525;-72
2021/12/22 02:06:12;;;;;;;11.90;7.92;;;;;;;0.38;80.39;101382.81;3013085;77;21253;-72
2021/12/22 02:14:29;;;;;;;9.60;6.12;;;;;;;0.44;77.09;101371.36;3003489;79;20959;-71
2021/12/22 02:18:31;;;;;;;12.23;7.03;;;;;;;0.39;78.44;101378.03;2976637;79;21033;-72
2021/12/22 02:22:34;;;;;;;12.90;9.18;;;;;;;0.46;80.56;101376.11;3003202;79;21264;-72
2021/12/22 02:26:41;;;;;;;14.33;8.73;;;;;;;0.58;80.26;101378.89;3003523;79;21041;-73
2021/12/22 02:30:41;;;;;;;16.90;7.97;;;;;;;0.48;80.51;101377.39;3002792;79;21022;-72
2021/12/22 02:34:46;;;;;;;15.95;9.25;;;;;;;0.47;80.86;101373.06;3003663;79;22145;-72
2021/12/22 02:38:56;;;;;;;12.47;9.50;;;;;;;0.54;81.19;101376.82;3003800;79;21050;-72
2021/12/22 02:43:05;;;;;;;14.40;9.90;;;;;;;0.44;81.25;101374.44;3001877;79;20990;-72
2021/12/22 02:47:19;;;;;;;14.23;8.10;;;;;;;0.44;81.39;101372.67;3002746;79;21073;-72
2021/12/22 02:51:22;;;;;;;11.57;8.08;;;;;;;0.45;81.47;101370.92;3003852;79;21049;-73
2021/12/22 02:55:30;;;;;;;14.70;8.98;;;;;;;0.44;81.66;101376.59;3003911;79;20990;-73
2021/12/22 02:59:51;;;;;;;9.78;6.95;;;;;;;0.44;80.91;101375.75;3002728;79;21006;-72
2021/12/22 03:07:47;;;;;;;10.78;7.67;;;;;;;0.54;80.80;101375.94;3003795;79;21014;-72
2021/12/22 03:11:49;;;;;;;10.70;6.65;;;;;;;0.56;80.75;101385.93;3032761;76;21045;-72
2021/12/22 03:15:51;;;;;;;16.48;8.98;;;;;;;0.61;80.76;101380.16;3111788;76;21665;-73
2021/12/22 03:19:54;;;;;;;11.80;7.15;;;;;;;0.67;80.96;101381.33;3111859;76;20997;-72
2021/12/22 03:23:57;;;;;;;10.55;7.15;;;;;;;0.55;80.47;101381.16;3111297;76;21089;-72
2021/12/22 03:28:03;;;;;;;9.90;6.53;;;;;;;0.62;80.60;101373.16;3111142;76;21058;-72
2021/12/22 03:32:04;;;;;;;15.90;8.85;;;;;;;0.66;79.55;101381.34;3109711;76;21515;-72
2021/12/22 03:36:07;;;;;;;9.35;7.08;;;;;;;0.67;78.94;101381.76;3087013;76;21042;-72
2021/12/22 03:40:10;;;;;;;8.73;5.80;;;;;;;0.75;78.37;101386.82;3058613;77;20974;-71
2021/12/22 03:44:12;;;;;;;16.48;6.80;;;;;;;0.69;76.54;101385.23;3058302;77;21010;-72
2021/12/22 03:48:17;;;;;;;9.25;6.20;;;;;;;0.54;75.49;101385.11;3058421;77;21002;-72
2021/12/22 03:52:17;;;;;;;6.95;5.67;;;;;;;0.39;76.45;101388.93;3058637;77;20974;-72
2021/12/22 03:56:19;;;;;;;11.28;7.05;;;;;;;0.30;76.32;101380.83;3058611;77;21048;-72
2021/12/22 04:00:21;;;;;;;56.55;27.90;;;;;;;0.17;76.94;101396.36;3058699;77;21057;-73
2021/12/22 04:04:24;;;;;;;37.83;18.17;;;;;;;0.08;76.95;101405.26;3070694;76;21012;-70
2021/12/22 04:08:27;;;;;;;17.52;12.82;;;;;;;-0.05;77.72;101396.36;3073334;77;20991;-71
2021/12/22 04:12:29;;;;;;;45.25;21.62;;;;;;;0.01;78.30;101403.67;3072719;77;20944;-69
2021/12/22 04:16:30;;;;;;;36.30;17.07;;;;;;;0.04;76.11;101399.25;3072098;77;22002;-74
2021/12/22 04:20:33;;;;;;;32.33;17.60;;;;;;;-0.03;77.31;101406.78;3073695;77;20984;-74
2021/12/22 04:24:35;;;;;;;16.32;6.17;;;;;;;0.01;77.30;101404.98;3073598;77;20955;-76
2021/12/22 04:28:37;;;;;;;10.58;4.42;;;;;;;0.04;76.65;101404.91;3073736;77;21008;-76
2021/12/22 04:32:38;;;;;;;11.90;6.08;;;;;;;0.04;75.52;101399.68;3073793;77;21015;-76
2021/12/22 04:36:41;;;;;;;13.08;9.73;;;;;;;0.01;76.15;101398.44;3073594;77;20988;-75
2021/12/22 04:40:44;;;;;;;6.45;4.97;;;;;;;0.08;76.12;101396.10;3073846;77;21042;-73
2021/12/22 04:44:46;;;;;;;11.43;7.03;;;;;;;0.01;75.38;101399.74;3069119;77;21058;-77
2021/12/22 04:48:48;;;;;;;8.63;6.42;;;;;;;-0.01;75.47;101401.07;3068148;76;21019;-74
2021/12/22 04:56:57;;;;;;;12.37;6.28;;;;;;;0.02;75.64;101411.50;3073734;77;20975;-75
2021/12/22 05:00:58;;;;;;;9.30;6.15;;;;;;;0.00;74.30;101414.59;3073887;77;21015;-74
2021/12/22 05:05:00;;;;;;;14.53;8.33;;;;;;;-0.11;73.88;101418.70;3058513;77;21018;-75
2021/12/22 05:09:04;;;;;;;11.60;8.30;;;;;;;-0.07;73.50;101419.52;3057888;77;21117;-72
2021/12/22 05:13:06;;;;;;;9.63;6.35;;;;;;;-0.17;73.25;101426.24;3040237;77;20984;-72
2021/12/22 05:17:17;;;;;;;15.08;10.65;;;;;;;-0.32;74.35;101422.12;3052538;77;20967;-75
2021/12/22 05:21:12;;;;;;;8.93;5.45;;;;;;;-0.21;75.11;101423.23;3046063;77;21046;-73
2021/12/22 05:25:14;;;;;;;6.35;4.28;;;;;;;-0.20;75.68;101426.27;3005972;79;21014;-74
2021/12/22 05:29:17;;;;;;;4.70;3.55;;;;;;;-0.23;75.31;101426.33;3005679;79;21093;-74
2021/12/22 05:33:18;;;;;;;6.90;3.92;;;;;;;-0.26;75.24;101423.78;3005954;77;21022;-73
2021/12/22 05:37:20;;;;;;;5.70;4.28;;;;;;;-0.12;74.55;101430.52;3031933;77;21522;-73
2021/12/22 05:41:22;;;;;;;10.05;4.33;;;;;;;-0.05;74.22;101439.53;3040421;77;21034;-76
2021/12/22 05:45:26;;;;;;;4.60;4.17;;;;;;;0.06;74.00;101441.06;3048604;77;21006;-69
2021/12/22 05:49:27;;;;;;;5.30;3.72;;;;;;;0.05;73.91;101437.59;3053531;77;20998;-72
2021/12/22 05:53:30;;;;;;;6.05;4.50;;;;;;;0.08;74.67;101411.38;3062658;77;20998;-70
2021/12/22 05:57:32;;;;;;;8.55;5.60;;;;;;;0.17;74.53;101421.22;3062352;77;20990;-71
2021/12/22 06:01:34;;;;;;;8.38;4.78;;;;;;;0.31;74.72;101438.83;3063449;77;21003;-72
2021/12/22 06:05:37;;;;;;;7.92;4.85;;;;;;;0.25;76.12;101445.03;3075296;77;20987;-71
2021/12/22 06:09:38;;;;;;;11.80;5.67;;;;;;;0.24;75.80;101438.55;3075632;77;20952;-69
2021/12/22 06:13:40;;;;;;;10.70;7.12;;;;;;;0.20;75.91;101446.05;3075742;77;20980;-73
2021/12/22 06:17:41;;;;;;;11.60;8.20;;;;;;;0.11;75.42;101455.78;3075256;77;20964;-70
2021/12/22 06:21:46;;;;;;;12.70;9.48;;;;;;;-0.01;75.33;101463.86;3075596;77;20992;-73
2021/12/22 06:25:47;;;;;;;8.33;6.20;;;;;;;0.02;75.26;101461.21;3075801;77;21011;-70
2021/12/22 06:29:49;;;;;;;10.90;8.05;;;;;;;-0.01;74.61;101462.12;3076439;77;21559;-70
2021/12/22 06:33:52;;;;;;;10.28;7.20;;;;;;;0.04;74.89;101459.42;3075844;77;21326;-70
2021/12/22 06:37:54;;;;;;;12.90;8.38;;;;;;;0.08;74.73;101464.13;3075661;77;21268;-70
2021/12/22 06:41:56;;;;;;;19.32;13.10;;;;;;;0.14;74.66;101464.03;3076013;77;20987;-72
2021/12/22 06:45:58;;;;;;;6.62;5.65;;;;;;;0.09;75.04;101471.97;3075725;77;21499;-71
2021/12/22 06:50:02;;;;;;;8.55;4.85;;;;;;;0.01;74.49;101482.16;3076106;77;20963;-73
2021/12/22 06:54:07;;;;;;;8.13;6.20;;;;;;;0.05;75.19;101478.16;3075994;77;20995;-73
2021/12/22 06:58:08;;;;;;;6.35;5.05;;;;;;;0.22;75.25;101476.97;3051207;77;21011;-71
2021/12/22 07:02:10;;;;;;;6.90;4.80;;;;;;;0.39;73.36;101470.08;3065541;77;21027;-73
2021/12/22 07:06:12;;;;;;;5.83;4.67;;;;;;;0.48;72.33;101477.73;3052633;77;21010;-73
2021/12/22 07:10:19;;;;;;;10.13;6.30;;;;;;;0.53;72.39;101478.52;3069238;76;21014;-73
2021/12/22 07:14:23;;;;;;;9.58;7.72;;;;;;;0.57;72.46;101475.38;3105602;76;21007;-71
2021/12/22 07:18:26;;;;;;;11.73;8.45;;;;;;;0.67;72.57;101479.53;3105259;76;21003;-73
2021/12/22 07:22:33;;;;;;;10.00;6.58;;;;;;;0.79;72.25;101477.09;3105564;76;21066;-72
2021/12/22 07:26:40;;;;;;;7.42;6.37;;;;;;;0.85;71.87;101480.87;3037537;76;21295;-70
2021/12/22 07:30:43;;;;;;;10.53;6.47;;;;;;;0.94;71.66;101478.51;3055182;77;20952;-72
2021/12/22 07:34:59;;;;;;;8.30;5.90;;;;;;;0.99;71.12;101480.59;3075422;77;21260;-70
2021/12/22 07:39:03;;;;;;;7.75;6.15;;;;;;;0.96;71.01;101491.13;3076130;77;20980;-72
2021/12/22 07:43:04;;;;;;;8.68;5.33;;;;;;;0.98;71.10;101505.08;3076407;77;20992;-72
2021/12/22 07:47:10;;;;;;;15.53;7.83;;;;;;;0.97;71.65;101500.70;3076333;77;21047;-69
2021/12/22 07:51:14;;;;;;;13.00;8.23;;;;;;;1.07;71.71;101493.97;3076926;77;20964;-70
2021/12/22 07:55:16;;;;;;;10.35;7.87;;;;;;;1.18;71.72;101491.09;3076431;77;20959;-72
2021/12/22 07:59:18;;;;;;;12.07;8.05;;;;;;;1.18;71.59;101494.59;3076488;77;21480;-73
2021/12/22 08:03:21;;;;;;;9.30;7.08;;;;;;;1.27;71.18;101502.23;3063482;77;20987;-73
2021/12/22 08:07:24;;;;;;;11.78;6.72;;;;;;;1.38;71.19;101500.66;3041623;76;20982;-72
2021/12/22 08:11:28;;;;;;;9.60;6.58;;;;;;;1.42;70.60;101504.08;3063553;77;21010;-73
2021/12/22 08:15:36;;;;;;;9.18;7.35;;;;;;;1.49;71.24;101495.16;3053052;77;21006;-70
2021/12/22 08:19:41;;;;;;;8.85;6.87;;;;;;;1.68;71.08;101502.57;3023350;77;21010;-71
2021/12/22 08:23:45;;;;;;;12.43;7.70;;;;;;;1.78;70.13;101489.64;3063704;77;21003;-71
2021/12/22 08:27:49;;;;;;;13.00;7.97;;;;;;;1.91;70.18;101490.62;3063161;77;21026;-72
2021/12/22 08:31:57;;;;;;;9.28;6.53;;;;;;;2.06;69.20;101487.59;3062991;77;21073;-72
2021/12/22 08:40:20;;;;;;;;;;;;;;;2.30;69.59;101498.31;3065212;77;21026;-70
2021/12/22 08:44:25;;;;;;;8.10;5.53;;;;;;;2.45;68.51;101500.11;3020068;77;20107;-73
2021/12/22 08:48:30;;;;;;;10.10;6.83;;;;;;;2.52;68.37;101499.02;3035345;76;21020;-67
2021/12/22 08:52:34;;;;;;;13.62;7.78;;;;;;;2.62;67.72;101502.24;3053159;77;20982;-68
2021/12/22 08:56:38;;;;;;;12.55;7.12;;;;;;;2.67;66.22;101505.16;3063519;77;20955;-71
2021/12/22 09:00:40;;;;;;;20.30;12.88;;;;;;;2.61;66.54;101504.03;3057295;77;21027;-69
2021/12/22 09:04:42;;;;;;;23.45;14.98;;;;;;;2.67;68.27;101518.77;3045398;76;21034;-73
2021/12/22 09:08:45;;;;;;;15.10;10.18;;;;;;;2.63;67.87;101524.98;3044285;77;21018;-71
2021/12/22 09:12:50;;;;;;;17.92;11.22;;;;;;;2.49;67.42;101528.88;3018487;77;21053;-71
2021/12/22 09:16:56;;;;;;;22.07;12.43;;;;;;;2.29;67.96;101530.73;3063554;77;20987;-70
2021/12/22 09:21:05;;;;;;;17.40;11.70;;;;;;;2.19;68.60;101527.49;3061185;77;20963;-71
2021/12/22 09:25:09;;;;;;;20.85;11.65;;;;;;;2.12;69.18;101532.51;3063293;77;21042;-73
2021/12/22 09:29:17;;;;;;;19.77;11.88;;;;;;;2.08;69.63;101535.66;3062851;77;20983;-73
2021/12/22 09:33:23;;;;;;;23.00;14.40;;;;;;;2.02;69.38;101538.45;3031914;77;21010;-73
2021/12/22 09:37:25;;;;;;;93.82;51.50;;;;;;;2.02;69.09;101536.27;3025465;77;21038;-73
2021/12/22 09:41:29;;;;;;;22.37;14.40;;;;;;;2.13;69.78;101525.89;3048979;77;21061;-72
2021/12/22 09:45:42;;;;;;;19.45;11.00;;;;;;;2.29;69.38;101528.11;3027345;77;21023;-72
2021/12/22 09:53:53;;;;;;;23.05;14.18;;;;;;;2.57;68.77;101512.91;3032202;77;20967;-73
2021/12/22 09:57:56;;;;;;;16.42;10.43;;;;;;;2.64;68.63;101507.87;3053981;77;21074;-72
2021/12/22 10:01:58;;;;;;;21.73;11.95;;;;;;;2.73;68.46;101506.75;3051803;77;21006;-70
2021/12/22 10:05:59;;;;;;;16.87;11.05;;;;;;;2.78;67.97;101503.99;3073257;77;21008;-75
2021/12/22 10:10:09;;;;;;;14.05;9.73;;;;;;;2.86;67.69;101496.72;3075642;77;20975;-73
2021/12/22 10:14:22;;;;;;;17.82;10.58;;;;;;;2.93;67.47;101502.19;3075732;77;20913;-77
2021/12/22 10:18:28;;;;;;;19.52;11.43;;;;;;;3.02;67.40;101501.52;3075484;77;20987;-72
2021/12/22 10:22:37;;;;;;;20.00;13.30;;;;;;;3.09;66.60;101493.84;3052411;76;20994;-79
2021/12/22 10:26:39;;;;;;;17.92;11.38;;;;;;;3.08;66.96;101486.86;3070130;76;21036;-73
2021/12/22 10:30:43;;;;;;;17.73;11.28;;;;;;;3.16;67.05;101486.62;3061992;76;20990;-74
2021/12/22 10:35:05;;;;;;;19.12;13.43;;;;;;;3.16;66.42;101486.19;3030723;76;20967;-76
2021/12/22 10:39:12;;;;;;;15.90;12.58;;;;;;;3.14;66.23;101480.09;3018474;79;20983;-72
2021/12/22 10:43:27;;;;;;;22.80;12.63;;;;;;;3.06;66.37;101479.48;3021082;76;21007;-75
2021/12/22 10:49:14;;;;;;;17.17;12.17;;;;;;;2.98;66.71;101475.33;3078279;76;20979;-75
2021/12/22 10:51:40;;;;;;;20.00;13.13;;;;;;;2.90;67.01;101477.80;3046185;77;21236;-76
2021/12/22 10:55:45;;;;;;;;;;;;;;;2.83;67.40;101473.17;3076438;77;20976;-76
2021/12/22 10:59:49;;;;;;;22.45;12.90;;;;;;;2.75;68.18;101469.89;3067156;77;20126;-71
2021/12/22 11:04:00;;;;;;;23.50;13.32;;;;;;;2.80;67.82;101468.86;3055381;77;20979;-76
2021/12/22 11:07:56;;;;;;;19.77;14.70;;;;;;;2.75;67.57;101457.63;3042671;77;20979;-74
2021/12/22 11:11:58;;;;;;;31.33;19.85;;;;;;;2.74;67.80;101458.54;3027481;76;20979;-76
2021/12/22 11:16:00;;;;;;;25.10;15.85;;;;;;;2.79;67.86;101449.21;3033914;77;21011;-76
2021/12/22 11:20:04;;;;;;;18.10;12.23;;;;;;;2.86;67.44;101448.11;3030660;77;20967;-73
2021/12/22 11:24:06;;;;;;;21.97;15.68;;;;;;;2.83;66.94;101448.20;3022314;77;21045;-76
2021/12/22 11:28:07;;;;;;;26.33;19.50;;;;;;;2.78;67.64;101437.83;3060521;77;21018;-76
2021/12/22 11:32:13;;;;;;;50.67;27.35;;;;;;;2.73;68.68;101434.92;3059548;77;20959;-74
2021/12/22 11:36:15;;;;;;;24.63;16.02;;;;;;;2.64;68.28;101429.50;3060172;77;21006;-76
2021/12/22 11:40:18;;;;;;;29.23;22.55;;;;;;;2.59;68.25;101435.34;3048454;77;21033;-74
2021/12/22 11:44:21;;;;;;;40.00;22.45;;;;;;;2.53;68.73;101424.13;3051925;77;21026;-73
2021/12/22 11:48:23;;;;;;;36.73;20.30;;;;;;;2.48;69.27;101414.66;3060555;77;21022;-75
2021/12/22 11:52:38;;;;;;;22.25;16.27;;;;;;;2.45;69.67;101406.87;3059260;77;21037;-75
2021/12/22 11:56:46;;;;;;;28.95;21.73;;;;;;;2.32;69.52;101403.28;3048527;77;21022;-74
2021/12/22 12:00:59;;;;;;;27.00;18.35;;;;;;;2.37;69.42;101397.47;3052589;77;21014;-75
2021/12/22 12:05:30;;;;;;;22.85;13.45;;;;;;;2.21;70.60;101390.94;3051492;77;20990;-75
2021/12/22 12:09:32;;;;;;;24.92;14.73;;;;;;;2.00;71.31;101384.94;3051376;77;21041;-73
2021/12/22 12:13:44;;;;;;;18.05;11.25;;;;;;;1.75;72.34;101386.53;3050992;77;21049;-74
2021/12/22 12:22:12;;;;;;;27.00;15.58;;;;;;;1.49;73.77;101383.70;3031252;77;20986;-75
2021/12/22 12:26:21;;;;;;;35.70;19.55;;;;;;;1.52;74.27;101377.06;3033489;76;21030;-74
2021/12/22 12:30:45;;;;;;;28.65;19.07;;;;;;;1.69;73.62;101381.00;3038403;77;21053;-71
2021/12/22 12:34:51;;;;;;;38.70;22.58;;;;;;;1.79;73.60;101385.11;3041690;77;21018;-67
2021/12/22 12:38:57;;;;;;;72.30;43.10;;;;;;;1.88;73.09;101376.12;3018250;77;21038;-67
2021/12/22 12:43:01;;;;;;;50.97;27.17;;;;;;;1.99;72.92;101378.44;3010121;77;21037;-75
2021/12/22 12:47:18;;;;;;;58.48;30.65;;;;;;;2.02;72.31;101367.84;3014560;77;20994;-75
2021/12/22 12:51:36;;;;;;;53.10;29.63;;;;;;;2.06;72.02;101370.78;3016740;77;21057;-70
2021/12/22 12:55:37;;;;;;;63.58;32.40;;;;;;;2.05;72.09;101363.81;2973313;79;21037;-74
2021/12/22 12:59:46;;;;;;;143.32;75.00;;;;;;;2.06;72.78;101366.84;2968914;79;21033;-76
2021/12/22 13:03:49;;;;;;;41.45;26.37;;;;;;;2.02;72.58;101362.60;2972221;78;21027;-74
2021/12/22 13:07:50;;;;;;;45.90;27.90;;;;;;;2.00;72.73;101363.10;3009177;78;21019;-75
2021/12/22 13:12:10;;;;;;;33.23;22.95;;;;;;;1.98;72.39;101361.81;3027896;78;20995;-77
2021/12/22 13:16:16;;;;;;;37.53;23.57;;;;;;;1.92;72.10;101354.12;3013001;78;21043;-74
2021/12/22 13:20:29;;;;;;;30.72;19.17;;;;;;;1.90;71.68;101357.69;3000704;78;21076;-72
2021/12/22 13:24:34;;;;;;;30.17;19.37;;;;;;;1.82;71.93;101353.53;3015308;77;20963;-74
2021/12/22 13:28:37;;;;;;;32.67;18.65;;;;;;;1.82;72.67;101351.34;3032567;77;21073;-72
2021/12/22 13:33:10;;;;;;;25.52;17.48;;;;;;;1.80;72.90;101349.22;3014523;77;21048;-75
2021/12/22 13:37:11;;;;;;;25.57;18.20;;;;;;;1.79;72.94;101349.69;2997677;77;21020;-74
2021/12/22 13:41:22;;;;;;;26.75;15.95;;;;;;;1.83;73.17;101349.13;2985598;79;20981;-75
2021/12/22 13:45:23;;;;;;;35.17;19.60;;;;;;;1.83;73.16;101352.63;3018167;78;21546;-75
2021/12/22 13:49:25;;;;;;;34.95;24.15;;;;;;;1.84;73.69;101349.09;3015216;77;21017;-70
2021/12/22 13:53:27;;;;;;;29.05;18.57;;;;;;;1.83;73.67;101347.38;3001328;77;20993;-72
2021/12/22 13:57:28;;;;;;;32.20;18.55;;;;;;;1.82;73.75;101345.66;2989459;77;20983;-70
2021/12/22 14:01:40;;;;;;;25.82;17.87;;;;;;;1.82;73.78;101345.66;2993843;77;21021;-74
2021/12/22 14:05:41;;;;;;;24.15;16.42;;;;;;;1.82;73.44;101346.97;3012217;78;21020;-74
2021/12/22 14:09:50;;;;;;;25.95;15.88;;;;;;;1.69;73.62;101342.95;3002650;77;21025;-73
2021/12/22 14:13:52;;;;;;;28.52;16.07;;;;;;;1.60;74.14;101340.14;2985975;79;21614;-71
2021/12/22 14:17:53;;;;;;;28.57;18.23;;;;;;;1.45;74.49;101341.42;2943654;79;21023;-73
2021/12/22 14:22:11;;;;;;;35.78;16.35;;;;;;;1.41;74.77;101348.97;2978166;79;21048;-72
2021/12/22 14:26:12;;;;;;;25.65;15.50;;;;;;;1.40;74.93;101349.41;2979576;79;21077;-69
2021/12/22 14:30:25;;;;;;;25.45;15.10;;;;;;;1.31;74.72;101355.34;2959475;79;21087;-74
2021/12/22 14:34:27;;;;;;;28.00;16.77;;;;;;;1.25;74.88;101355.04;2949238;79;21041;-73
2021/12/22 14:38:33;;;;;;;25.00;15.50;;;;;;;1.22;75.14;101358.63;2950248;79;21041;-72
2021/12/22 14:42:34;;;;;;;30.10;19.48;;;;;;;1.20;75.17;101356.92;2990338;79;21701;-71
2021/12/22 14:46:38;;;;;;;35.00;21.65;;;;;;;1.08;75.45;101352.42;2989088;79;21068;-71
2021/12/22 14:51:08;;;;;;;33.45;20.50;;;;;;;1.09;75.24;101349.34;2969123;79;21076;-72
2021/12/22 14:55:10;;;;;;;31.75;21.95;;;;;;;1.04;75.24;101344.20;2980216;79;21047;-71
2021/12/22 14:59:13;;;;;;;30.95;19.40;;;;;;;0.95;75.24;101353.15;2949778;80;21570;-70
2021/12/22 15:03:15;;;;;;;36.38;22.15;;;;;;;0.91;75.24;101341.50;2951067;80;21033;-72
2021/12/22 15:07:17;;;;;;;32.78;22.52;;;;;;;0.79;75.38;101338.73;2954318;79;21049;-74
2021/12/22 15:11:21;;;;;;;38.25;22.75;;;;;;;0.74;75.27;101333.59;2995936;78;21033;-70
2021/12/22 15:15:23;;;;;;;40.20;22.40;;;;;;;0.66;75.39;101341.63;2918374;81;21037;-71
2021/12/22 15:19:24;;;;;;;34.18;24.35;;;;;;;0.58;75.50;101340.09;2966709;80;21066;-69
2021/12/22 15:23:25;;;;;;;40.28;24.18;;;;;;;0.48;75.80;101342.05;2933208;81;21535;-70
2021/12/22 15:27:27;;;;;;;34.63;22.13;;;;;;;0.47;76.07;101336.41;2932780;81;21041;-70
2021/12/22 15:31:30;;;;;;;39.15;24.12;;;;;;;0.45;76.18;101327.73;2951782;79;21006;-71
2021/12/22 15:35:33;;;;;;;41.58;29.42;;;;;;;0.47;76.17;101332.48;2985459;79;21101;-69
2021/12/22 15:39:35;;;;;;;51.58;23.83;;;;;;;0.53;76.19;101332.33;2985170;79;21010;-70
2021/12/22 15:43:37;;;;;;;34.75;24.20;;;;;;;0.56;76.09;101329.63;3020124;79;20998;-70
2021/12/22 15:47:39;;;;;;;35.20;22.17;;;;;;;0.61;76.20;101331.72;3020282;79;20997;-71
2021/12/22 15:51:42;;;;;;;33.15;19.23;;;;;;;0.54;76.30;101325.77;3020189;79;21016;-70
2021/12/22 15:55:44;;;;;;;29.05;19.55;;;;;;;0.52;76.57;101333.23;3020142;79;20989;-70
2021/12/22 15:59:46;;;;;;;33.13;20.77;;;;;;;0.54;77.00;101337.98;3020384;79;21038;-68
2021/12/22 16:03:48;;;;;;;27.13;19.07;;;;;;;0.52;77.20;101335.41;3019852;79;20970;-70
2021/12/22 16:07:49;;;;;;;36.00;19.60;;;;;;;0.54;77.25;101332.30;3019958;78;21050;-69
2021/12/22 16:11:51;;;;;;;30.12;17.75;;;;;;;0.64;77.26;101339.50;3020455;79;21012;-70
2021/12/22 16:15:53;;;;;;;30.50;19.65;;;;;;;0.66;76.99;101339.44;3019936;79;21018;-70
2021/12/22 16:19:57;;;;;;;28.40;17.40;;;;;;;0.68;77.00;101335.91;3020578;77;20985;-70
2021/12/22 16:23:58;;;;;;;36.20;20.20;;;;;;;0.69;76.70;101340.70;3020262;78;21048;-70
2021/12/22 16:28:01;;;;;;;35.35;21.02;;;;;;;0.66;76.77;101339.01;3020529;79;21080;-69
2021/12/22 16:32:03;;;;;;;39.60;23.25;;;;;;;0.66;76.76;101341.63;3020873;79;21001;-70
2021/12/22 16:36:06;;;;;;;44.53;27.75;;;;;;;0.59;76.76;101334.83;3019762;79;21053;-69
2021/12/22 16:40:09;;;;;;;53.95;27.45;;;;;;;0.54;76.82;101329.69;3020092;79;21026;-71
2021/12/22 16:44:11;;;;;;;46.73;26.70;;;;;;;0.50;77.11;101328.47;3020309;79;21115;-70
2021/12/22 16:48:12;;;;;;;54.85;29.72;;;;;;;0.50;77.33;101316.70;3020215;79;21025;-70
2021/12/22 16:52:14;;;;;;;90.15;47.93;;;;;;;0.53;77.28;101316.62;3020238;79;21029;-70
2021/12/22 16:56:19;;;;;;;98.70;49.70;;;;;;;0.30;78.33;101311.47;3020303;79;21052;-71
2021/12/22 17:00:21;;;;;;;87.10;44.45;;;;;;;0.07;79.33;101306.30;3020735;79;21089;-70
2021/12/22 17:04:23;;;;;;;74.27;36.80;;;;;;;-0.06;80.26;101304.83;3020228;78;21009;-70
2021/12/22 17:08:25;;;;;;;80.32;37.05;;;;;;;-0.24;81.29;101300.39;3013830;79;21075;-70
2021/12/22 17:12:26;;;;;;;66.82;33.40;;;;;;;-0.33;81.92;101290.98;3013904;79;21084;-67
2021/12/22 17:16:30;;;;;;;112.95;66.53;;;;;;;-0.28;81.23;101289.59;3014216;79;20982;-70
2021/12/22 17:20:34;;;;;;;134.47;79.55;;;;;;;-0.31;81.08;101277.89;3013707;79;21017;-71
2021/12/22 17:24:36;;;;;;;118.65;67.60;;;;;;;-0.32;81.09;101283.55;3020583;77;20964;-70
2021/12/22 17:28:39;;;;;;;116.55;60.10;;;;;;;-0.25;80.77;101279.52;3070164;77;21026;-68
2021/12/22 17:32:41;;;;;;;109.75;54.93;;;;;;;-0.21;80.87;101275.48;3006966;77;21633;-70
2021/12/22 17:36:44;;;;;;;147.02;67.80;;;;;;;-0.20;80.66;101265.89;2966986;80;21063;-69
2021/12/22 17:40:47;;;;;;;113.20;58.35;;;;;;;-0.24;80.38;101258.55;3006587;78;20998;-70
2021/12/22 17:44:49;;;;;;;114.15;58.55;;;;;;;-0.11;80.33;101260.45;3014431;79;20998;-70
2021/12/22 17:48:50;;;;;;;112.37;62.90;;;;;;;-0.05;79.91;101264.27;3013995;79;21006;-73
2021/12/22 17:52:52;;;;;;;90.03;50.52;;;;;;;0.00;79.52;101255.02;3011456;79;21311;-72
2021/12/22 17:56:54;;;;;;;82.10;43.70;;;;;;;-0.02;79.38;101248.92;3013794;79;21037;-69
2021/12/22 18:00:56;;;;;;;96.97;59.77;;;;;;;-0.15;79.47;101238.75;2986672;79;21026;-72
2021/12/22 18:04:58;;;;;;;73.65;44.98;;;;;;;-0.08;79.83;101248.64;3004839;78;21576;-71
2021/12/22 18:09:03;;;;;;;74.32;44.35;;;;;;;-0.13;79.96;101244.39;3023472;78;21094;-73
2021/12/22 18:13:06;;;;;;;69.20;37.55;;;;;;;-0.13;79.71;101238.70;3023947;78;21056;-72
2021/12/22 18:17:08;;;;;;;69.10;39.08;;;;;;;-0.22;80.25;101234.53;3023951;78;20931;-74
2021/12/22 18:21:09;;;;;;;59.08;38.58;;;;;;;-0.20;79.96;101228.81;3020612;78;21016;-71
2021/12/22 18:25:12;;;;;;;60.15;36.88;;;;;;;-0.21;80.06;101225.79;2970834;79;21037;-71
2021/12/22 18:29:16;;;;;;;81.05;45.70;;;;;;;-0.29;80.20;101215.95;2970243;80;21030;-70
2021/12/22 18:33:18;;;;;;;52.85;35.35;;;;;;;-0.23;79.85;101227.58;2969583;80;21050;-75
2021/12/22 18:37:27;;;;;;;51.02;31.00;;;;;;;-0.27;80.10;101224.63;2968943;80;21033;-76
2021/12/22 18:41:27;;;;;;;74.35;43.20;;;;;;;-0.40;80.73;101218.80;2968102;79;21574;-74
2021/12/22 18:45:28;;;;;;;60.98;34.15;;;;;;;-0.53;81.34;101216.89;3068829;77;21057;-77
2021/12/22 18:49:30;;;;;;;65.03;35.95;;;;;;;-0.53;81.85;101197.30;3074095;77;21006;-75
2021/12/22 18:53:32;;;;;;;47.33;31.27;;;;;;;-0.53;81.85;101197.30;3050880;77;21526;-73
2021/12/22 18:57:33;;;;;;;56.00;34.43;;;;;;;-0.53;81.66;101190.76;3001754;78;21537;-73
2021/12/22 19:01:35;;;;;;;58.45;40.33;;;;;;;-0.48;82.04;101196.73;3008541;78;21065;-73
2021/12/22 19:05:40;;;;;;;56.65;36.00;;;;;;;-0.48;82.12;101192.81;2960692;80;21596;-75
2021/12/22 19:09:42;;;;;;;106.03;62.80;;;;;;;-0.64;82.73;101192.72;2946441;80;21354;-72